Time;durP1;ratioP1;P1;durP2;ratioP2;P2;SDS_P1;SDS_P2;PMS_P1;PMS_P2;Temp;Humidity;BMP_temperature;BMP_pressure;BME280_temperature;BME280_humidity;BME280_pressure;Samples;Min_cycle;Max_cycle;Signal;HPM_P1;HPM_P2
2019/09/14 00:01:55;;;;;;;1.53;1.42;;;;;;;21.37;55.64;102107.18;;;;-50
2019/09/14 00:04:55;;;;;;;1.67;1.40;;;;;;;21.37;55.62;102095.03;;;;-50
2019/09/14 00:07:55;;;;;;;1.54;1.41;;;;;;;21.36;55.63;102084.83;;;;-51
2019/09/14 00:10:55;;;;;;;1.53;1.43;;;;;;;21.36;55.66;102091.27;;;;-50
2019/09/14 00:13:55;;;;;;;1.50;1.40;;;;;;;21.36;55.62;102092.33;;;;-51
2019/09/14 00:16:55;;;;;;;1.47;1.37;;;;;;;21.35;55.65;102083.47;;;;-51
2019/09/14 00:19:55;;;;;;;1.42;1.32;;;;;;;21.36;55.64;102088.58;;;;-51
2019/09/14 00:22:55;;;;;;;1.51;1.41;;;;;;;21.35;55.65;102087.89;;;;-50
2019/09/14 00:25:55;;;;;;;1.49;1.39;;;;;;;21.33;55.71;102090.78;;;;-51
2019/09/14 00:28:55;;;;;;;1.49;1.39;;;;;;;21.34;55.60;102095.73;;;;-51
2019/09/14 00:31:55;;;;;;;1.54;1.44;;;;;;;21.34;55.67;102096.17;;;;-51
2019/09/14 00:34:55;;;;;;;2.07;1.41;;;;;;;21.34;55.59;102094.49;;;;-51
2019/09/14 00:37:56;;;;;;;2.02;1.51;;;;;;;21.33;55.67;102097.80;;;;-51
2019/09/14 00:40:55;;;;;;;2.15;1.40;;;;;;;21.33;55.67;102088.09;;;;-50
2019/09/14 00:43:55;;;;;;;1.63;1.53;;;;;;;21.33;55.67;102082.62;;;;-51
2019/09/14 00:46:55;;;;;;;1.41;1.31;;;;;;;21.33;55.65;102084.69;;;;-51
2019/09/14 00:49:55;;;;;;;1.39;1.29;;;;;;;21.32;55.68;102081.26;;;;-51
2019/09/14 00:52:55;;;;;;;1.57;1.43;;;;;;;21.32;55.66;102083.16;;;;-51
2019/09/14 00:55:55;;;;;;;1.45;1.31;;;;;;;21.31;55.69;102082.33;;;;-51
2019/09/14 00:58:55;;;;;;;1.60;1.50;;;;;;;21.31;55.65;102089.98;;;;-51
2019/09/14 01:01:55;;;;;;;1.52;1.42;;;;;;;21.31;55.62;102096.11;;;;-51
2019/09/14 01:04:55;;;;;;;1.49;1.39;;;;;;;21.31;55.70;102101.41;;;;-50
2019/09/14 01:07:55;;;;;;;1.40;1.30;;;;;;;21.31;55.61;102112.96;;;;-50
2019/09/14 01:10:56;;;;;;;1.60;1.50;;;;;;;21.31;55.65;102108.47;;;;-51
2019/09/14 01:13:55;;;;;;;1.58;1.48;;;;;;;21.31;55.68;102110.31;;;;-51
2019/09/14 01:16:55;;;;;;;1.59;1.49;;;;;;;21.30;55.66;102118.56;;;;-51
2019/09/14 01:19:55;;;;;;;1.50;1.40;;;;;;;21.30;55.61;102118.32;;;;-51
2019/09/14 01:22:55;;;;;;;2.20;1.51;;;;;;;21.30;55.66;102117.66;;;;-51
2019/09/14 01:25:55;;;;;;;1.49;1.39;;;;;;;21.30;55.67;102118.16;;;;-51
2019/09/14 01:28:55;;;;;;;1.51;1.41;;;;;;;21.29;55.70;102116.66;;;;-50
2019/09/14 01:31:55;;;;;;;1.50;1.40;;;;;;;21.29;55.69;102106.33;;;;-50
2019/09/14 01:34:55;;;;;;;1.56;1.46;;;;;;;21.29;55.61;102105.56;;;;-50
2019/09/14 01:37:55;;;;;;;1.61;1.51;;;;;;;21.28;55.64;102097.48;;;;-51
2019/09/14 01:40:55;;;;;;;1.54;1.40;;;;;;;21.28;55.70;102083.92;;;;-51
2019/09/14 01:43:55;;;;;;;1.50;1.40;;;;;;;21.27;55.68;102071.93;;;;-50
2019/09/14 01:46:55;;;;;;;1.40;1.30;;;;;;;21.28;55.71;102072.39;;;;-51
2019/09/14 01:49:55;;;;;;;1.48;1.38;;;;;;;21.28;55.68;102064.08;;;;-59
2019/09/14 01:52:55;;;;;;;3.67;1.58;;;;;;;21.27;55.63;102059.83;;;;-59
2019/09/14 01:55:55;;;;;;;1.40;1.30;;;;;;;21.27;55.68;102062.62;;;;-59
2019/09/14 01:58:55;;;;;;;1.60;1.50;;;;;;;21.27;55.67;102061.95;;;;-59
2019/09/14 02:01:55;;;;;;;2.70;1.55;;;;;;;21.28;55.62;102061.39;;;;-59
2019/09/14 02:04:55;;;;;;;1.41;1.31;;;;;;;21.26;55.66;102065.65;;;;-59
2019/09/14 02:07:56;;;;;;;1.58;1.48;;;;;;;21.27;55.66;102064.48;;;;-59
2019/09/14 02:10:55;;;;;;;1.50;1.40;;;;;;;21.27;55.68;102068.06;;;;-59
2019/09/14 02:13:55;;;;;;;1.53;1.43;;;;;;;21.26;55.68;102069.12;;;;-59
2019/09/14 02:16:55;;;;;;;1.51;1.41;;;;;;;21.27;55.67;102071.08;;;;-59
2019/09/14 02:19:55;;;;;;;1.59;1.40;;;;;;;21.27;55.66;102078.81;;;;-59
2019/09/14 02:22:56;;;;;;;1.36;1.26;;;;;;;21.26;55.71;102078.20;;;;-59
2019/09/14 02:25:55;;;;;;;1.63;1.53;;;;;;;21.26;55.69;102087.83;;;;-59
2019/09/14 02:28:55;;;;;;;1.59;1.49;;;;;;;21.26;55.67;102089.94;;;;-59
2019/09/14 02:31:55;;;;;;;1.60;1.50;;;;;;;21.26;55.65;102090.67;;;;-59
2019/09/14 02:34:55;;;;;;;1.69;1.59;;;;;;;21.26;55.62;102084.80;;;;-59
2019/09/14 02:37:55;;;;;;;1.52;1.42;;;;;;;21.26;55.63;102083.45;;;;-59
2019/09/14 02:40:55;;;;;;;1.51;1.41;;;;;;;21.25;55.67;102078.36;;;;-59
2019/09/14 02:43:55;;;;;;;1.50;1.40;;;;;;;21.25;55.68;102073.93;;;;-59
2019/09/14 02:46:55;;;;;;;1.50;1.40;;;;;;;21.25;55.70;102066.53;;;;-60
2019/09/14 02:49:55;;;;;;;1.59;1.49;;;;;;;21.25;55.70;102069.94;;;;-59
2019/09/14 02:52:55;;;;;;;1.53;1.43;;;;;;;21.24;55.72;102059.06;;;;-59
2019/09/14 02:55:55;;;;;;;1.91;1.50;;;;;;;21.24;55.66;102058.23;;;;-60
2019/09/14 02:58:55;;;;;;;1.49;1.39;;;;;;;21.24;55.71;102058.56;;;;-59
2019/09/14 03:01:55;;;;;;;1.50;1.40;;;;;;;21.24;55.65;102058.73;;;;-59
2019/09/14 03:04:55;;;;;;;1.44;1.34;;;;;;;21.24;55.66;102060.93;;;;-60
2019/09/14 03:07:55;;;;;;;1.53;1.43;;;;;;;21.24;55.66;102061.83;;;;-59
2019/09/14 03:10:55;;;;;;;1.51;1.41;;;;;;;21.23;55.68;102056.55;;;;-59
2019/09/14 03:13:55;;;;;;;1.67;1.49;;;;;;;21.24;55.61;102063.27;;;;-59
2019/09/14 03:16:55;;;;;;;1.53;1.43;;;;;;;21.23;55.62;102055.88;;;;-59
2019/09/14 03:19:55;;;;;;;1.67;1.57;;;;;;;21.23;55.66;102055.30;;;;-59
2019/09/14 03:22:55;;;;;;;2.01;1.63;;;;;;;21.23;55.68;102058.05;;;;-59
2019/09/14 03:25:55;;;;;;;1.57;1.47;;;;;;;21.22;55.61;102051.45;;;;-59
2019/09/14 03:28:55;;;;;;;1.53;1.43;;;;;;;21.21;55.61;102054.69;;;;-59
2019/09/14 03:31:55;;;;;;;1.59;1.49;;;;;;;21.22;55.68;102056.59;;;;-59
2019/09/14 03:34:55;;;;;;;1.83;1.43;;;;;;;21.22;55.64;102050.87;;;;-59
2019/09/14 03:37:56;;;;;;;1.87;1.46;;;;;;;21.22;55.62;102052.62;;;;-59
2019/09/14 03:40:55;;;;;;;1.53;1.41;;;;;;;21.22;55.63;102050.93;;;;-59
2019/09/14 03:43:55;;;;;;;1.69;1.59;;;;;;;21.21;55.61;102055.87;;;;-59
2019/09/14 03:46:55;;;;;;;1.58;1.48;;;;;;;21.22;55.64;102054.46;;;;-59
2019/09/14 03:49:55;;;;;;;1.57;1.47;;;;;;;21.21;55.57;102050.88;;;;-59
2019/09/14 03:52:56;;;;;;;1.52;1.42;;;;;;;21.21;55.59;102051.31;;;;-59
2019/09/14 03:55:55;;;;;;;1.68;1.58;;;;;;;21.22;55.60;102055.30;;;;-59
2019/09/14 03:58:55;;;;;;;1.50;1.40;;;;;;;21.20;55.67;102053.62;;;;-59
2019/09/14 04:01:55;;;;;;;1.72;1.62;;;;;;;21.20;55.65;102052.61;;;;-59
2019/09/14 04:04:55;;;;;;;1.60;1.50;;;;;;;21.20;55.60;102054.45;;;;-59
2019/09/14 04:07:55;;;;;;;2.03;1.60;;;;;;;21.20;55.66;102044.76;;;;-59
2019/09/14 04:10:55;;;;;;;1.58;1.48;;;;;;;21.20;55.62;102041.17;;;;-59
2019/09/14 04:13:55;;;;;;;1.69;1.59;;;;;;;21.20;55.59;102044.25;;;;-59
2019/09/14 04:16:55;;;;;;;1.59;1.49;;;;;;;21.19;55.66;102043.98;;;;-59
2019/09/14 04:19:55;;;;;;;1.70;1.60;;;;;;;21.19;55.62;102045.38;;;;-54
2019/09/14 04:22:55;;;;;;;1.79;1.67;;;;;;;21.18;55.62;102042.33;;;;-54
2019/09/14 04:25:55;;;;;;;1.77;1.58;;;;;;;21.19;55.61;102044.30;;;;-54
2019/09/14 04:28:55;;;;;;;1.59;1.49;;;;;;;21.19;55.59;102047.91;;;;-54
2019/09/14 04:31:55;;;;;;;1.73;1.63;;;;;;;21.19;55.59;102050.87;;;;-54
2019/09/14 04:34:55;;;;;;;1.70;1.60;;;;;;;21.19;55.58;102049.58;;;;-53
2019/09/14 04:37:55;;;;;;;1.73;1.63;;;;;;;21.18;55.58;102046.27;;;;-54
2019/09/14 04:40:55;;;;;;;1.75;1.63;;;;;;;21.18;55.54;102039.72;;;;-53
2019/09/14 04:43:55;;;;;;;1.64;1.54;;;;;;;21.18;55.60;102037.03;;;;-54
2019/09/14 04:46:55;;;;;;;1.62;1.52;;;;;;;21.19;55.59;102034.72;;;;-54
2019/09/14 04:49:55;;;;;;;1.70;1.60;;;;;;;21.18;55.58;102041.32;;;;-53
2019/09/14 04:52:56;;;;;;;1.60;1.50;;;;;;;21.17;55.61;102041.93;;;;-54
2019/09/14 04:55:55;;;;;;;1.79;1.69;;;;;;;21.18;55.58;102042.78;;;;-53
2019/09/14 04:58:55;;;;;;;1.65;1.55;;;;;;;21.18;55.57;102045.41;;;;-54
2019/09/14 05:01:55;;;;;;;1.70;1.60;;;;;;;21.17;55.54;102041.25;;;;-55
2019/09/14 05:04:55;;;;;;;1.73;1.63;;;;;;;21.17;55.61;102041.50;;;;-54
2019/09/14 05:07:55;;;;;;;1.66;1.56;;;;;;;21.18;55.55;102045.30;;;;-54
2019/09/14 05:10:55;;;;;;;1.81;1.71;;;;;;;21.17;55.58;102043.27;;;;-54
2019/09/14 05:13:55;;;;;;;1.80;1.70;;;;;;;21.17;55.51;102045.45;;;;-54
2019/09/14 05:16:55;;;;;;;1.63;1.53;;;;;;;21.17;55.52;102052.34;;;;-54
2019/09/14 05:19:55;;;;;;;1.79;1.69;;;;;;;21.16;55.62;102052.79;;;;-54
2019/09/14 05:22:55;;;;;;;1.60;1.50;;;;;;;21.16;55.54;102048.92;;;;-50
2019/09/14 05:25:55;;;;;;;1.70;1.60;;;;;;;21.17;55.57;102059.86;;;;-50
2019/09/14 05:28:55;;;;;;;1.67;1.57;;;;;;;21.16;55.56;102061.64;;;;-50
2019/09/14 05:34:55;;;;;;;1.67;1.57;;;;;;;21.16;55.54;102067.30;;;;-51
2019/09/14 05:37:55;;;;;;;1.61;1.51;;;;;;;21.16;55.56;102079.29;;;;-51
2019/09/14 05:40:55;;;;;;;1.70;1.60;;;;;;;21.16;55.52;102090.48;;;;-59
2019/09/14 05:43:55;;;;;;;1.60;1.50;;;;;;;21.15;55.56;102092.12;;;;-59
2019/09/14 05:46:55;;;;;;;1.50;1.40;;;;;;;21.16;55.59;102093.56;;;;-60
2019/09/14 05:49:55;;;;;;;1.60;1.50;;;;;;;21.15;55.56;102092.16;;;;-59
2019/09/14 05:52:55;;;;;;;1.70;1.60;;;;;;;21.15;55.53;102100.78;;;;-59
2019/09/14 05:55:55;;;;;;;1.62;1.52;;;;;;;21.15;55.54;102106.32;;;;-60
2019/09/14 05:58:55;;;;;;;1.55;1.45;;;;;;;21.15;55.57;102112.54;;;;-60
2019/09/14 06:01:55;;;;;;;1.67;1.57;;;;;;;21.15;55.53;102109.13;;;;-59
2019/09/14 06:04:55;;;;;;;1.63;1.50;;;;;;;21.14;55.56;102113.56;;;;-60
2019/09/14 06:07:55;;;;;;;1.60;1.50;;;;;;;21.15;55.54;102115.80;;;;-59
2019/09/14 06:10:55;;;;;;;1.60;1.50;;;;;;;21.14;55.56;102118.42;;;;-59
2019/09/14 06:13:55;;;;;;;1.71;1.61;;;;;;;21.14;55.59;102115.45;;;;-60
2019/09/14 06:17:15;;;;;;;1.61;1.51;;;;;;;21.14;55.53;102121.63;;;;-50
2019/09/14 06:19:57;;;;;;;1.60;1.50;;;;;;;21.14;55.56;102122.47;;;;-51
2019/09/14 06:22:56;;;;;;;1.60;1.50;;;;;;;21.15;55.55;102124.59;;;;-51
2019/09/14 06:25:56;;;;;;;1.69;1.59;;;;;;;21.14;55.52;102128.16;;;;-51
2019/09/14 06:28:55;;;;;;;1.61;1.51;;;;;;;21.14;55.62;102129.69;;;;-51
2019/09/14 06:31:55;;;;;;;1.70;1.60;;;;;;;21.13;55.58;102125.77;;;;-50
2019/09/14 06:34:55;;;;;;;1.69;1.59;;;;;;;21.14;55.57;102127.83;;;;-50
2019/09/14 06:37:55;;;;;;;1.80;1.70;;;;;;;21.13;55.57;102125.58;;;;-50
2019/09/14 06:40:55;;;;;;;1.60;1.50;;;;;;;21.13;55.54;102122.91;;;;-51
2019/09/14 06:43:55;;;;;;;1.70;1.60;;;;;;;21.14;55.60;102125.30;;;;-50
2019/09/14 06:46:55;;;;;;;1.60;1.50;;;;;;;21.13;55.52;102127.11;;;;-50
2019/09/14 06:49:55;;;;;;;1.60;1.50;;;;;;;21.14;55.49;102126.20;;;;-51
2019/09/14 06:52:55;;;;;;;1.67;1.56;;;;;;;21.13;55.57;102119.55;;;;-50
2019/09/14 06:55:55;;;;;;;1.65;1.55;;;;;;;21.14;55.65;102123.18;;;;-49
2019/09/14 06:58:55;;;;;;;4.07;2.43;;;;;;;21.05;55.62;102126.34;;;;-50
2019/09/14 07:01:55;;;;;;;4.25;2.57;;;;;;;21.00;55.82;102126.52;;;;-47
2019/09/14 07:04:55;;;;;;;4.31;2.50;;;;;;;21.04;55.93;102130.54;;;;-47
2019/09/14 07:07:55;;;;;;;2.49;2.18;;;;;;;21.07;55.90;102131.64;;;;-47
2019/09/14 07:10:55;;;;;;;3.11;2.20;;;;;;;21.08;55.83;102127.05;;;;-47
2019/09/14 07:13:55;;;;;;;3.13;2.10;;;;;;;21.09;55.79;102121.34;;;;-47
2019/09/14 07:16:55;;;;;;;6.36;2.13;;;;;;;21.13;55.75;102120.09;;;;-46
2019/09/14 07:19:55;;;;;;;2.40;2.18;;;;;;;21.12;55.77;102117.05;;;;-47
2019/09/14 07:22:55;;;;;;;2.67;2.07;;;;;;;21.12;55.79;102120.99;;;;-47
2019/09/14 07:25:55;;;;;;;3.37;2.00;;;;;;;21.12;55.80;102119.23;;;;-47
2019/09/14 07:28:55;;;;;;;2.21;1.97;;;;;;;21.12;55.74;102112.23;;;;-47
2019/09/14 07:31:55;;;;;;;2.22;2.00;;;;;;;21.14;55.74;102109.57;;;;-47
2019/09/14 07:34:55;;;;;;;2.24;1.99;;;;;;;21.13;55.68;102110.30;;;;-48
2019/09/14 07:37:55;;;;;;;2.83;1.97;;;;;;;21.14;55.72;102115.95;;;;-47
2019/09/14 07:40:55;;;;;;;2.86;2.04;;;;;;;21.14;55.80;102121.33;;;;-48
2019/09/14 07:43:55;;;;;;;2.63;2.11;;;;;;;21.15;55.87;102118.42;;;;-48
2019/09/14 07:46:55;;;;;;;3.45;2.00;;;;;;;21.17;55.87;102114.30;;;;-48
2019/09/14 07:49:55;;;;;;;3.38;1.91;;;;;;;21.20;55.95;102104.08;;;;-48
2019/09/14 07:52:55;;;;;;;2.27;1.80;;;;;;;21.23;56.04;102102.92;;;;-49
2019/09/14 07:55:55;;;;;;;2.38;1.97;;;;;;;21.25;56.03;102091.64;;;;-49
2019/09/14 07:58:55;;;;;;;2.16;1.96;;;;;;;21.27;55.95;102088.55;;;;-47
2019/09/14 08:01:55;;;;;;;3.35;1.87;;;;;;;21.28;55.88;102083.98;;;;-50
2019/09/14 08:04:55;;;;;;;3.03;1.75;;;;;;;21.30;55.95;102084.88;;;;-46
2019/09/14 08:07:55;;;;;;;3.08;1.91;;;;;;;21.32;55.99;102080.64;;;;-46
2019/09/14 08:10:55;;;;;;;3.75;2.00;;;;;;;21.31;55.97;102076.55;;;;-49
2019/09/14 08:13:56;;;;;;;2.16;1.88;;;;;;;21.33;55.82;102078.42;;;;-49
2019/09/14 08:16:55;;;;;;;2.28;2.01;;;;;;;21.32;55.76;102078.02;;;;-50
2019/09/14 08:19:55;;;;;;;3.29;1.99;;;;;;;21.32;55.82;102072.02;;;;-50
2019/09/14 08:22:55;;;;;;;2.58;1.76;;;;;;;21.32;55.79;102066.80;;;;-50
2019/09/14 08:25:55;;;;;;;2.16;1.89;;;;;;;21.32;55.75;102059.97;;;;-50
2019/09/14 08:28:55;;;;;;;2.71;1.81;;;;;;;21.31;55.74;102058.13;;;;-50
2019/09/14 08:31:55;;;;;;;2.10;1.90;;;;;;;21.32;55.64;102049.62;;;;-49
2019/09/14 08:34:56;;;;;;;2.09;1.91;;;;;;;21.31;55.63;102045.73;;;;-50
2019/09/14 08:37:55;;;;;;;2.34;1.87;;;;;;;21.31;55.58;102042.16;;;;-51
2019/09/14 08:40:55;;;;;;;2.16;1.89;;;;;;;21.32;55.57;102045.41;;;;-50
2019/09/14 08:43:55;;;;;;;2.09;1.91;;;;;;;21.31;55.52;102043.84;;;;-50
2019/09/14 08:46:55;;;;;;;1.98;1.80;;;;;;;21.31;55.54;102051.11;;;;-50
2019/09/14 08:49:56;;;;;;;2.17;1.73;;;;;;;21.32;55.55;102056.78;;;;-50
2019/09/14 08:52:55;;;;;;;2.51;1.73;;;;;;;21.31;55.52;102057.16;;;;-49
2019/09/14 08:55:56;;;;;;;2.41;1.79;;;;;;;21.32;55.52;102054.59;;;;-50
2019/09/14 08:58:56;;;;;;;2.45;1.61;;;;;;;21.33;55.43;102053.98;;;;-50
2019/09/14 09:01:55;;;;;;;2.18;1.80;;;;;;;21.32;55.51;102049.95;;;;-50
2019/09/14 09:04:55;;;;;;;2.11;1.85;;;;;;;21.33;55.41;102049.17;;;;-49
2019/09/14 09:07:55;;;;;;;2.29;1.80;;;;;;;21.31;55.45;102043.22;;;;-50
2019/09/14 09:10:55;;;;;;;1.81;1.65;;;;;;;21.31;55.41;102047.08;;;;-50
2019/09/14 09:13:56;;;;;;;2.25;1.75;;;;;;;21.32;55.38;102045.69;;;;-49
2019/09/14 09:16:55;;;;;;;1.81;1.68;;;;;;;21.33;55.29;102040.36;;;;-50
2019/09/14 09:19:55;;;;;;;1.99;1.73;;;;;;;21.34;55.38;102038.31;;;;-50
2019/09/14 09:22:55;;;;;;;4.02;1.90;;;;;;;21.32;55.37;102036.17;;;;-50
2019/09/14 09:25:55;;;;;;;4.04;1.93;;;;;;;21.32;55.48;102032.06;;;;-49
2019/09/14 09:28:56;;;;;;;1.99;1.72;;;;;;;21.34;55.52;102031.42;;;;-47
2019/09/14 09:31:56;;;;;;;2.11;1.80;;;;;;;21.37;55.54;102022.59;;;;-49
2019/09/14 09:34:55;;;;;;;12.39;1.84;;;;;;;21.39;55.49;102028.43;;;;-51
2019/09/14 09:37:55;;;;;;;2.87;1.82;;;;;;;21.39;55.53;102022.48;;;;-52
2019/09/14 09:40:55;;;;;;;2.15;1.70;;;;;;;21.41;55.54;102024.45;;;;-49
2019/09/14 09:43:56;;;;;;;2.94;1.81;;;;;;;21.42;55.59;102020.82;;;;-48
2019/09/14 09:46:55;;;;;;;1.95;1.72;;;;;;;21.43;55.61;102023.47;;;;-50
2019/09/14 09:49:55;;;;;;;3.51;1.85;;;;;;;21.45;55.65;102019.66;;;;-46
2019/09/14 09:52:55;;;;;;;3.23;1.81;;;;;;;21.45;55.61;102017.58;;;;-46
2019/09/14 09:55:55;;;;;;;3.25;1.85;;;;;;;21.47;55.68;102016.65;;;;-49
2019/09/14 09:58:55;;;;;;;2.18;1.80;;;;;;;21.48;55.62;102015.08;;;;-47
2019/09/14 10:01:55;;;;;;;2.27;1.89;;;;;;;21.49;55.65;102018.16;;;;-50
2019/09/14 10:04:55;;;;;;;3.19;1.73;;;;;;;21.50;55.75;102017.72;;;;-52
2019/09/14 10:07:55;;;;;;;2.33;1.77;;;;;;;21.50;55.68;102017.73;;;;-50
2019/09/14 10:10:55;;;;;;;2.25;1.80;;;;;;;21.50;55.75;102014.38;;;;-51
2019/09/14 10:13:55;;;;;;;2.52;1.79;;;;;;;21.52;55.71;102003.34;;;;-50
2019/09/14 10:16:55;;;;;;;3.35;1.86;;;;;;;21.53;55.77;101995.78;;;;-50
2019/09/14 10:19:55;;;;;;;2.17;1.72;;;;;;;21.54;55.72;101995.66;;;;-48
2019/09/14 10:22:55;;;;;;;2.11;1.70;;;;;;;21.54;55.77;101997.47;;;;-57
2019/09/14 10:25:55;;;;;;;2.78;1.71;;;;;;;21.55;55.78;101992.61;;;;-46
2019/09/14 10:28:55;;;;;;;2.46;1.82;;;;;;;21.55;55.87;101988.78;;;;-53
2019/09/14 10:31:55;;;;;;;2.91;1.69;;;;;;;21.57;55.78;101982.40;;;;-61
2019/09/14 10:34:55;;;;;;;1.77;1.57;;;;;;;21.55;55.80;101979.16;;;;-48
2019/09/14 10:37:55;;;;;;;3.65;1.81;;;;;;;21.55;55.83;101977.81;;;;-58
2019/09/14 10:40:55;;;;;;;2.95;1.67;;;;;;;21.54;55.76;101976.33;;;;-58
2019/09/14 10:43:55;;;;;;;2.65;1.78;;;;;;;21.54;55.68;101972.53;;;;-48
2019/09/14 10:46:55;;;;;;;2.56;1.69;;;;;;;21.54;55.66;101972.03;;;;-48
2019/09/14 10:49:55;;;;;;;2.17;1.68;;;;;;;21.53;55.63;101967.88;;;;-58
2019/09/14 10:52:55;;;;;;;2.39;1.79;;;;;;;21.54;55.59;101968.72;;;;-48
2019/09/14 10:55:55;;;;;;;2.75;1.97;;;;;;;21.52;55.60;101959.52;;;;-56
2019/09/14 10:58:55;;;;;;;1.90;1.75;;;;;;;21.52;55.52;101963.55;;;;-54
2019/09/14 11:01:55;;;;;;;2.19;1.86;;;;;;;21.53;55.51;101959.88;;;;-55
2019/09/14 11:04:55;;;;;;;2.51;1.83;;;;;;;21.52;55.53;101960.76;;;;-54
2019/09/14 11:07:55;;;;;;;2.77;1.75;;;;;;;21.52;55.50;101962.77;;;;-55
2019/09/14 11:10:55;;;;;;;2.39;1.69;;;;;;;21.52;55.49;101958.13;;;;-57
2019/09/14 11:13:55;;;;;;;2.55;1.71;;;;;;;21.52;55.44;101953.25;;;;-58
2019/09/14 11:16:55;;;;;;;1.90;1.71;;;;;;;21.51;55.48;101952.46;;;;-48
2019/09/14 11:19:55;;;;;;;2.53;1.69;;;;;;;21.52;55.44;101950.16;;;;-49
2019/09/14 11:22:55;;;;;;;2.37;1.75;;;;;;;21.51;55.47;101941.70;;;;-58
2019/09/14 11:25:55;;;;;;;2.31;1.90;;;;;;;21.51;55.39;101941.42;;;;-57
2019/09/14 11:28:55;;;;;;;3.75;1.91;;;;;;;21.51;55.46;101941.26;;;;-58
2019/09/14 11:31:55;;;;;;;2.05;1.81;;;;;;;21.52;55.44;101940.14;;;;-58
2019/09/14 11:34:55;;;;;;;1.93;1.83;;;;;;;21.50;55.37;101936.70;;;;-58
2019/09/14 11:37:55;;;;;;;1.87;1.71;;;;;;;21.51;55.39;101930.94;;;;-58
2019/09/14 11:40:55;;;;;;;2.13;1.75;;;;;;;21.50;55.36;101930.20;;;;-57
2019/09/14 11:43:56;;;;;;;2.11;1.70;;;;;;;21.50;55.35;101930.48;;;;-58
2019/09/14 11:46:55;;;;;;;2.63;1.79;;;;;;;21.51;55.30;101919.51;;;;-57
2019/09/14 11:49:59;;;;;;;1.75;1.65;;;;;;;21.50;55.30;101920.80;;;;-58
2019/09/14 11:52:55;;;;;;;2.62;1.81;;;;;;;21.50;55.26;101914.33;;;;-58
2019/09/14 11:55:55;;;;;;;2.42;1.79;;;;;;;21.51;55.28;101912.95;;;;-58
2019/09/14 11:58:55;;;;;;;2.81;1.67;;;;;;;21.50;55.30;101906.00;;;;-58
2019/09/14 12:01:55;;;;;;;1.91;1.79;;;;;;;21.50;55.26;101907.69;;;;-58
2019/09/14 12:04:55;;;;;;;4.09;1.92;;;;;;;21.50;55.36;101909.70;;;;-56
2019/09/14 12:07:55;;;;;;;2.46;1.86;;;;;;;21.52;55.37;101903.42;;;;-57
2019/09/14 12:10:55;;;;;;;2.41;1.74;;;;;;;21.54;55.50;101897.94;;;;-58
2019/09/14 12:13:55;;;;;;;2.15;1.71;;;;;;;21.54;55.43;101882.47;;;;-58
2019/09/14 12:16:55;;;;;;;2.59;1.80;;;;;;;21.56;55.59;101877.50;;;;-58
2019/09/14 12:19:56;;;;;;;2.01;1.78;;;;;;;21.56;55.57;101873.73;;;;-57
2019/09/14 12:22:55;;;;;;;3.05;1.90;;;;;;;21.57;55.59;101870.09;;;;-57
2019/09/14 12:25:55;;;;;;;2.29;1.78;;;;;;;21.58;55.67;101868.97;;;;-56
2019/09/14 12:28:55;;;;;;;1.92;1.76;;;;;;;21.58;55.83;101869.12;;;;-55
2019/09/14 12:31:55;;;;;;;3.31;1.98;;;;;;;21.59;55.90;101867.05;;;;-59
2019/09/14 12:34:56;;;;;;;2.47;1.71;;;;;;;21.60;55.75;101863.87;;;;-59
2019/09/14 12:37:55;;;;;;;4.01;1.79;;;;;;;21.61;55.86;101867.57;;;;-59
2019/09/14 12:40:55;;;;;;;3.41;1.83;;;;;;;21.60;55.77;101856.19;;;;-59
2019/09/14 12:43:55;;;;;;;3.24;1.75;;;;;;;21.62;55.98;101851.32;;;;-58
2019/09/14 12:46:55;;;;;;;2.93;1.80;;;;;;;21.63;55.72;101848.08;;;;-57
2019/09/14 12:50:55;;;;;;;5.63;1.95;;;;;;;21.63;55.82;101842.23;;;;-57
2019/09/14 12:53:55;;;;;;;3.55;1.95;;;;;;;21.64;55.89;101837.81;;;;-54
2019/09/14 12:56:55;;;;;;;5.11;2.05;;;;;;;21.66;55.95;101835.12;;;;-60
2019/09/14 12:59:55;;;;;;;4.91;1.90;;;;;;;21.67;56.06;101829.81;;;;-56
2019/09/14 13:02:55;;;;;;;4.59;2.08;;;;;;;21.68;55.91;101821.80;;;;-60
2019/09/14 13:05:55;;;;;;;4.90;1.91;;;;;;;21.69;56.11;101810.13;;;;-61
2019/09/14 13:08:56;;;;;;;5.25;2.28;;;;;;;21.70;56.16;101802.28;;;;-58
2019/09/14 13:11:56;;;;;;;6.39;2.11;;;;;;;21.71;56.15;101800.23;;;;-57
2019/09/14 13:14:56;;;;;;;4.53;1.90;;;;;;;21.72;56.04;101798.09;;;;-59
2019/09/14 13:17:55;;;;;;;2.27;1.91;;;;;;;21.72;56.03;101789.51;;;;-57
2019/09/14 13:20:55;;;;;;;2.97;2.04;;;;;;;21.73;55.97;101786.89;;;;-57
2019/09/14 13:23:55;;;;;;;6.38;2.07;;;;;;;21.73;56.05;101787.73;;;;-55
2019/09/14 13:26:55;;;;;;;7.90;2.08;;;;;;;21.74;56.09;101781.45;;;;-57
2019/09/14 13:29:55;;;;;;;3.37;1.98;;;;;;;21.72;55.92;101781.62;;;;-59
2019/09/14 13:32:55;;;;;;;3.25;1.90;;;;;;;21.73;55.94;101776.52;;;;-60
2019/09/14 13:35:55;;;;;;;5.93;1.90;;;;;;;21.73;55.83;101773.48;;;;-59
2019/09/14 13:38:55;;;;;;;3.88;2.00;;;;;;;21.73;55.83;101778.41;;;;-59
2019/09/14 13:41:55;;;;;;;3.49;1.81;;;;;;;21.73;55.79;101774.33;;;;-58
2019/09/14 13:44:56;;;;;;;3.07;1.97;;;;;;;21.71;55.64;101774.05;;;;-57
2019/09/14 13:47:55;;;;;;;4.75;1.85;;;;;;;21.73;55.75;101764.34;;;;-54
2019/09/14 13:50:55;;;;;;;3.46;2.01;;;;;;;21.73;55.77;101761.31;;;;-55
2019/09/14 13:53:56;;;;;;;2.65;1.79;;;;;;;21.74;55.78;101761.38;;;;-56
2019/09/14 13:56:56;;;;;;;3.29;1.90;;;;;;;21.76;55.88;101759.47;;;;-54
2019/09/14 13:59:55;;;;;;;3.09;1.86;;;;;;;21.77;55.78;101759.59;;;;-54
2019/09/14 14:02:55;;;;;;;3.19;1.71;;;;;;;21.77;55.78;101753.54;;;;-58
2019/09/14 14:05:55;;;;;;;2.25;1.85;;;;;;;21.79;55.78;101751.79;;;;-57
2019/09/14 14:08:55;;;;;;;2.75;1.79;;;;;;;21.78;55.80;101746.70;;;;-57
2019/09/14 14:11:55;;;;;;;2.54;1.89;;;;;;;21.79;55.74;101741.13;;;;-54
2019/09/14 14:14:56;;;;;;;2.67;1.80;;;;;;;21.80;55.71;101736.14;;;;-56
2019/09/14 14:17:55;;;;;;;2.54;1.88;;;;;;;21.80;55.83;101735.71;;;;-56
2019/09/14 14:20:56;;;;;;;4.78;1.80;;;;;;;21.80;55.73;101737.16;;;;-47
2019/09/14 14:23:55;;;;;;;3.27;1.89;;;;;;;21.81;55.85;101736.38;;;;-60
2019/09/14 14:26:55;;;;;;;3.31;1.97;;;;;;;21.82;55.81;101719.10;;;;-48
2019/09/14 14:29:55;;;;;;;3.89;1.96;;;;;;;21.80;55.73;101726.46;;;;-48
2019/09/14 14:32:56;;;;;;;5.33;1.79;;;;;;;21.80;55.86;101722.69;;;;-48
2019/09/14 14:35:56;;;;;;;3.79;1.74;;;;;;;21.79;55.73;101718.59;;;;-49
2019/09/14 14:38:55;;;;;;;3.56;1.80;;;;;;;21.79;55.66;101711.53;;;;-49
2019/09/14 14:41:55;;;;;;;2.45;1.76;;;;;;;21.77;55.76;101708.81;;;;-48
2019/09/14 14:44:55;;;;;;;3.63;1.91;;;;;;;21.77;55.61;101706.38;;;;-48
2019/09/14 14:47:55;;;;;;;5.14;1.99;;;;;;;21.78;55.66;101697.36;;;;-49
2019/09/14 14:50:55;;;;;;;2.57;1.80;;;;;;;21.77;55.58;101692.76;;;;-48
2019/09/14 14:53:56;;;;;;;2.40;1.73;;;;;;;21.76;55.55;101688.73;;;;-48
2019/09/14 14:56:55;;;;;;;2.43;1.83;;;;;;;21.76;55.50;101686.55;;;;-49
2019/09/14 14:59:55;;;;;;;2.10;1.83;;;;;;;21.75;55.50;101688.52;;;;-48
2019/09/14 15:02:55;;;;;;;2.60;1.80;;;;;;;21.74;55.50;101691.26;;;;-49
2019/09/14 15:05:55;;;;;;;2.88;1.77;;;;;;;21.74;55.48;101693.61;;;;-49
2019/09/14 15:08:55;;;;;;;2.12;1.83;;;;;;;21.74;55.49;101696.19;;;;-49
2019/09/14 15:11:55;;;;;;;2.51;1.80;;;;;;;21.74;55.50;101694.22;;;;-48
2019/09/14 15:14:55;;;;;;;3.66;1.74;;;;;;;21.73;55.43;101687.34;;;;-49
2019/09/14 15:17:56;;;;;;;2.01;1.73;;;;;;;21.72;55.41;101685.43;;;;-49
2019/09/14 15:20:55;;;;;;;2.95;1.69;;;;;;;21.73;55.46;101688.50;;;;-48
2019/09/14 15:23:55;;;;;;;2.53;1.86;;;;;;;21.73;55.44;101687.27;;;;-49
2019/09/14 15:26:55;;;;;;;2.74;1.89;;;;;;;21.72;55.44;101689.45;;;;-55
2019/09/14 15:29:55;;;;;;;2.08;1.73;;;;;;;21.71;55.42;101687.72;;;;-48
2019/09/14 15:32:55;;;;;;;2.51;1.77;;;;;;;21.72;55.37;101684.25;;;;-49
2019/09/14 15:35:55;;;;;;;2.90;1.79;;;;;;;21.71;55.43;101685.36;;;;-49
2019/09/14 15:38:55;;;;;;;2.31;1.72;;;;;;;21.71;55.42;101679.20;;;;-48
2019/09/14 15:41:55;;;;;;;2.57;1.77;;;;;;;21.71;55.44;101681.27;;;;-48
2019/09/14 15:44:55;;;;;;;2.31;1.74;;;;;;;21.69;55.42;101676.02;;;;-49
2019/09/14 15:47:55;;;;;;;2.01;1.74;;;;;;;21.70;55.31;101680.16;;;;-57
2019/09/14 15:50:55;;;;;;;2.29;1.65;;;;;;;21.71;55.47;101679.31;;;;-53
2019/09/14 15:53:55;;;;;;;1.93;1.75;;;;;;;21.71;55.48;101681.00;;;;-54
2019/09/14 15:56:56;;;;;;;2.45;1.67;;;;;;;21.73;55.51;101682.11;;;;-49
2019/09/14 15:59:55;;;;;;;2.22;1.67;;;;;;;21.75;55.62;101682.95;;;;-47
2019/09/14 16:02:55;;;;;;;2.12;1.66;;;;;;;21.76;55.67;101679.98;;;;-46
2019/09/14 16:05:55;;;;;;;2.59;1.82;;;;;;;21.76;55.72;101677.14;;;;-53
2019/09/14 16:08:55;;;;;;;3.31;1.85;;;;;;;21.78;55.74;101680.59;;;;-51
2019/09/14 16:11:55;;;;;;;2.60;1.84;;;;;;;21.79;55.71;101676.39;;;;-56
2019/09/14 16:14:55;;;;;;;2.82;1.75;;;;;;;21.79;55.78;101674.94;;;;-57
2019/09/14 16:17:56;;;;;;;2.05;1.72;;;;;;;21.81;55.79;101676.55;;;;-52
2019/09/14 16:20:55;;;;;;;3.34;1.74;;;;;;;21.80;55.77;101675.95;;;;-54
2019/09/14 16:23:55;;;;;;;2.19;1.78;;;;;;;21.82;55.80;101675.09;;;;-54
2019/09/14 16:26:55;;;;;;;2.77;1.73;;;;;;;21.82;55.73;101676.05;;;;-48
2019/09/14 16:29:55;;;;;;;3.03;1.78;;;;;;;21.82;55.78;101675.38;;;;-49
2019/09/14 16:32:55;;;;;;;2.59;1.65;;;;;;;21.83;55.84;101678.19;;;;-47
2019/09/14 16:35:55;;;;;;;2.93;1.82;;;;;;;21.84;55.88;101675.61;;;;-51
2019/09/14 16:38:55;;;;;;;2.33;1.63;;;;;;;21.84;55.86;101676.55;;;;-51
2019/09/14 16:41:56;;;;;;;3.10;1.67;;;;;;;21.84;55.91;101673.47;;;;-48
2019/09/14 16:44:55;;;;;;;1.85;1.69;;;;;;;21.85;55.96;101672.81;;;;-48
2019/09/14 16:47:55;;;;;;;2.66;1.74;;;;;;;21.86;55.91;101673.24;;;;-48